createdAt,value
2023-02-21T00:01:02.903Z,15.5
2023-02-21T00:02:12.000Z,16
2023-02-21T00:03:28.000Z,15.5
2023-02-21T00:04:44.000Z,16
2023-02-21T00:06:06.945Z,16.4
2023-02-21T00:07:16.000Z,15.4
2023-02-21T00:08:32.000Z,15.6
2023-02-21T00:09:48.000Z,15.3
2023-02-21T00:11:04.000Z,15.4
2023-02-21T00:12:21.000Z,15.2
2023-02-21T00:13:43.875Z,15.5
2023-02-21T00:14:52.000Z,16.1
2023-02-21T00:16:14.308Z,15.8
2023-02-21T00:17:23.000Z,16
2023-02-21T00:18:46.699Z,15.6
2023-02-21T00:20:02.168Z,16.2
2023-02-21T00:21:17.378Z,16
2023-02-21T00:22:26.000Z,16.4
2023-02-21T00:23:42.000Z,16.1
2023-02-21T00:24:59.000Z,16.4
2023-02-21T00:26:15.000Z,15.6
2023-02-21T00:27:31.000Z,15.7
2023-02-21T00:28:54.305Z,15.5
2023-02-21T00:30:03.000Z,16.1
2023-02-21T00:31:20.000Z,16.7
2023-02-21T00:32:43.144Z,16.1
2023-02-21T00:33:59.357Z,16.1
2023-02-21T00:35:08.000Z,16
2023-02-21T00:36:24.000Z,16.6
2023-02-21T00:37:40.000Z,16.1
2023-02-21T00:38:56.000Z,15.7
2023-02-21T00:40:19.333Z,16.1
2023-02-21T00:41:35.521Z,15.8
2023-02-21T00:42:44.000Z,15.8
2023-02-21T00:44:07.918Z,16.1
2023-02-21T00:45:24.104Z,15.5
2023-02-21T00:46:39.331Z,15.8
2023-02-21T00:47:54.298Z,14.6
2023-02-21T00:49:03.000Z,15.9
2023-02-21T00:50:26.942Z,15.6
2023-02-21T00:51:22.000Z,15.9
2023-02-21T00:51:43.138Z,16.1
2023-02-21T00:52:39.000Z,16
2023-02-21T00:52:59.330Z,15.8
2023-02-21T00:54:08.000Z,16.1
2023-02-21T00:55:31.723Z,15.5
2023-02-21T00:59:20.305Z,15.9
2023-02-21T01:00:36.501Z,15.9
2023-02-21T01:01:45.000Z,15.3
2023-02-21T01:02:47.000Z,16.1
2023-02-21T01:03:02.000Z,15.8
2023-02-21T01:04:17.000Z,15.8
2023-02-21T01:05:33.000Z,16.1
2023-02-21T01:06:56.248Z,15.2
2023-02-21T01:09:21.000Z,15.9
2023-02-21T01:10:38.000Z,15.8
2023-02-21T01:11:54.000Z,16.4
2023-02-21T01:13:09.000Z,16.2
2023-02-21T01:14:24.000Z,15.8
2023-02-21T01:15:40.000Z,15.4
2023-02-21T01:16:55.000Z,16.2
2023-02-21T01:17:58.000Z,14.3
2023-02-21T01:18:11.000Z,16.2
2023-02-21T01:19:34.288Z,15.9
2023-02-21T01:20:43.000Z,14.6
2023-02-21T01:22:00.000Z,14.2
2023-02-21T01:24:32.000Z,14.5
2023-02-21T01:25:55.523Z,13.9
2023-02-21T01:26:50.000Z,12.6
2023-02-21T01:27:11.712Z,14
2023-02-21T01:28:26.928Z,13.8
2023-02-21T01:29:36.000Z,14.3
2023-02-21T01:30:59.325Z,13.2
2023-02-21T01:33:24.000Z,13.5
2023-02-21T01:34:41.000Z,13.9
2023-02-21T01:36:04.109Z,13.9
2023-02-21T01:37:20.048Z,14
2023-02-21T01:38:29.000Z,14.1
2023-02-21T01:39:52.440Z,12.5
2023-02-21T01:41:08.635Z,13.3
2023-02-21T01:42:17.000Z,13
2023-02-21T01:43:32.000Z,12.8
2023-02-21T01:44:55.265Z,13.4
2023-02-21T01:46:03.000Z,12.2
2023-02-21T01:47:19.000Z,12.6
2023-02-21T01:48:35.000Z,12.7
2023-02-21T01:49:51.000Z,12.5
2023-02-21T01:51:14.285Z,12.9
2023-02-21T01:52:10.000Z,12.1
2023-02-21T01:52:30.481Z,12.8
2023-02-21T01:53:40.000Z,12.7
2023-02-21T01:55:03.124Z,12.3
2023-02-21T01:56:12.000Z,12.3
2023-02-21T01:58:44.000Z,12.6
2023-02-21T02:00:07.912Z,13.2
2023-02-21T02:01:24.097Z,12.8
2023-02-21T02:02:40.298Z,12.2
2023-02-21T02:03:48.000Z,13.2
2023-02-21T02:05:11.453Z,12.5
2023-02-21T02:06:27.898Z,11.8
2023-02-21T02:07:44.090Z,12.2
2023-02-21T02:09:00.295Z,12.5
2023-02-21T02:10:09.000Z,12.6
2023-02-21T02:11:25.000Z,12.6
2023-02-21T02:12:41.000Z,13
2023-02-21T02:13:57.000Z,13.3
2023-02-21T02:15:12.000Z,13
2023-02-21T02:16:27.000Z,12.8
2023-02-21T02:17:49.494Z,12.8
2023-02-21T02:18:59.000Z,13.1
2023-02-21T02:20:21.884Z,13.3
2023-02-21T02:21:38.079Z,13
2023-02-21T02:22:47.000Z,12.8
2023-02-21T02:24:10.730Z,11.9
2023-02-21T02:25:20.000Z,12.5
2023-02-21T02:26:36.000Z,12.3
2023-02-21T02:27:52.000Z,12.9
2023-02-21T02:29:15.253Z,12.6
2023-02-21T02:30:31.449Z,11.8
2023-02-21T02:31:40.000Z,12.4
2023-02-21T02:32:57.000Z,12.5
2023-02-21T02:34:19.051Z,12.1
2023-02-21T02:35:28.000Z,12.4
2023-02-21T02:36:51.443Z,12.2
2023-02-21T02:38:07.892Z,12.7
2023-02-21T02:39:17.000Z,12.5
2023-02-21T02:40:33.000Z,12.6
2023-02-21T02:41:49.000Z,12.1
2023-02-21T02:42:50.000Z,12.3
2023-02-21T02:43:11.447Z,11.7
2023-02-21T02:44:19.000Z,11.2
2023-02-21T02:45:42.855Z,12.1
2023-02-21T02:46:52.000Z,12.3
2023-02-21T02:49:31.696Z,11.5
2023-02-21T02:50:47.898Z,11.7
2023-02-21T02:52:04.077Z,11.8
2023-02-21T02:53:20.269Z,11.8
2023-02-21T02:54:29.000Z,11.7
2023-02-21T02:55:52.677Z,11.9
2023-02-21T02:57:08.866Z,11.7
2023-02-21T02:58:18.000Z,11.5
2023-02-21T02:59:34.000Z,11.9
2023-02-21T03:00:56.466Z,12
2023-02-21T03:02:12.659Z,11.9
2023-02-21T03:03:21.000Z,10.6
2023-02-21T03:04:38.000Z,11.2
2023-02-21T03:06:01.246Z,11.6
2023-02-21T03:07:10.000Z,11
2023-02-21T03:08:33.641Z,11.3
2023-02-21T03:09:48.860Z,12.1
2023-02-21T03:11:04.077Z,11.2
2023-02-21T03:12:19.295Z,11.6
2023-02-21T03:13:14.000Z,11.1
2023-02-21T03:13:27.000Z,10.9
2023-02-21T03:14:43.000Z,11
2023-02-21T03:16:06.891Z,11.7
2023-02-21T03:17:16.000Z,11.3
2023-02-21T03:19:48.000Z,11.5
2023-02-21T03:21:11.672Z,10.9
2023-02-21T03:22:20.000Z,10.5
2023-02-21T03:23:43.823Z,10.7
2023-02-21T03:24:53.000Z,10.8
2023-02-21T03:26:16.461Z,11.1
2023-02-21T03:27:32.652Z,10.6
2023-02-21T03:28:48.852Z,10.7
2023-02-21T03:29:57.000Z,10.9
2023-02-21T03:31:20.012Z,11
2023-02-21T03:32:29.000Z,11
2023-02-21T03:33:52.661Z,10.5
2023-02-21T03:35:08.599Z,10.8
2023-02-21T03:36:24.795Z,10.1
2023-02-21T03:37:34.000Z,10.1
2023-02-21T03:38:56.482Z,10.8
2023-02-21T03:40:04.000Z,10.2
2023-02-21T03:41:20.000Z,10
2023-02-21T03:42:44.067Z,10.3
2023-02-21T03:44:00.265Z,10.6
2023-02-21T03:45:15.485Z,9.8
2023-02-21T03:46:23.000Z,9.8
2023-02-21T03:47:46.641Z,9.6
2023-02-21T03:48:56.000Z,9.8
2023-02-21T03:50:12.000Z,10.1
2023-02-21T03:51:28.000Z,10
2023-02-21T03:52:44.000Z,10.1
2023-02-21T03:54:07.619Z,10
2023-02-21T03:55:17.000Z,10.2
2023-02-21T03:56:40.259Z,9.8
2023-02-21T03:57:49.000Z,9.5
2023-02-21T03:59:05.000Z,9.9
2023-02-21T04:00:21.000Z,9.5
2023-02-21T04:01:38.000Z,9.2
2023-02-21T04:02:53.000Z,8.8
2023-02-21T04:04:09.000Z,9.3
2023-02-21T04:05:32.652Z,9.1
2023-02-21T04:06:41.000Z,8.8
2023-02-21T04:07:58.000Z,9.5
2023-02-21T04:09:21.241Z,9.2
2023-02-21T04:10:30.000Z,9
2023-02-21T04:11:52.671Z,8.8
2023-02-21T04:13:07.872Z,9
2023-02-21T04:14:16.000Z,8.3
2023-02-21T04:15:38.295Z,8.6
2023-02-21T04:16:47.000Z,8.6
2023-02-21T04:18:10.684Z,8.8
2023-02-21T04:19:26.633Z,8.6
2023-02-21T04:20:43.084Z,8.5
2023-02-21T04:21:52.000Z,8.1
2023-02-21T04:23:15.219Z,8.6
2023-02-21T04:24:31.658Z,8.5
2023-02-21T04:25:40.000Z,9.1
2023-02-21T04:26:57.000Z,8.3
2023-02-21T04:28:20.246Z,8.5
2023-02-21T04:29:29.000Z,8.2
2023-02-21T04:30:45.000Z,8.3
2023-02-21T04:32:08.842Z,8.2
2023-02-21T04:33:24.061Z,8.2
2023-02-21T04:34:33.000Z,7.6
2023-02-21T04:35:56.437Z,8
2023-02-21T04:37:05.000Z,7.9
2023-02-21T04:38:21.000Z,8.5
2023-02-21T04:39:44.779Z,8.4
2023-02-21T04:40:53.000Z,8.1
2023-02-21T04:42:15.455Z,8.1
2023-02-21T04:43:24.000Z,7.9
2023-02-21T04:44:47.605Z,7.6
2023-02-21T04:45:57.000Z,7.5
2023-02-21T04:47:19.355Z,7.7
2023-02-21T04:48:34.482Z,7.7
2023-02-21T04:49:43.000Z,7.6
2023-02-21T04:50:59.000Z,8.1
2023-02-21T04:52:16.000Z,7.7
2023-02-21T04:53:39.264Z,7.4
2023-02-21T04:54:48.000Z,7.9
2023-02-21T04:56:11.663Z,7.7
2023-02-21T04:57:20.000Z,7.7
2023-02-21T04:58:44.043Z,7.6
2023-02-21T04:59:53.000Z,7.7
2023-02-21T05:01:09.000Z,7.7
2023-02-21T05:02:25.000Z,7.5
2023-02-21T05:03:48.834Z,7.3
2023-02-21T05:04:57.000Z,8
2023-02-21T05:06:20.244Z,7.7
2023-02-21T05:07:29.000Z,7.6
2023-02-21T05:08:45.000Z,7.6
2023-02-21T05:10:08.582Z,7.3
2023-02-21T05:11:18.000Z,8.7
2023-02-21T05:12:34.000Z,7.6
2023-02-21T05:13:49.000Z,8.2
2023-02-21T05:15:04.000Z,7.4
2023-02-21T05:16:19.000Z,7.3
2023-02-21T05:17:42.097Z,7.5
2023-02-21T05:18:58.038Z,7.5
2023-02-21T05:20:07.000Z,7.7
2023-02-21T05:21:30.673Z,7.2
2023-02-21T05:22:26.000Z,7.4
2023-02-21T05:22:46.870Z,8
2023-02-21T05:24:02.821Z,8
2023-02-21T05:25:19.267Z,8.2
2023-02-21T05:26:28.000Z,7.8
2023-02-21T05:29:00.000Z,7.5
2023-02-21T05:30:17.000Z,7.6
2023-02-21T05:31:33.000Z,7.2
2023-02-21T05:32:49.000Z,7.9
2023-02-21T05:34:11.655Z,7.4
2023-02-21T05:35:20.000Z,8.2
2023-02-21T05:36:37.000Z,7.5
2023-02-21T05:37:53.000Z,7.9
2023-02-21T05:39:16.433Z,7.8
2023-02-21T05:40:32.632Z,7.6
2023-02-21T05:41:41.000Z,8.3
2023-02-21T05:42:40.000Z,7.8
2023-02-21T05:42:57.000Z,8.4
2023-02-21T05:44:19.268Z,8
2023-02-21T05:45:28.000Z,8.3
2023-02-21T05:46:43.000Z,8.6
2023-02-21T05:49:22.108Z,7.7
2023-02-21T05:50:31.000Z,8.5
2023-02-21T05:51:47.000Z,9.1
2023-02-21T05:53:10.438Z,8.1
2023-02-21T05:54:19.000Z,9.5
2023-02-21T05:55:43.074Z,9.1
2023-02-21T05:56:52.000Z,8.9
2023-02-21T05:58:15.476Z,8.6
2023-02-21T05:59:31.672Z,9
2023-02-21T06:00:40.000Z,8.7
2023-02-21T06:02:04.060Z,8.3
2023-02-21T06:03:20.255Z,8.7
2023-02-21T06:04:28.000Z,9.5
2023-02-21T06:05:31.000Z,9.4
2023-02-21T06:05:44.000Z,9.2
2023-02-21T06:07:07.860Z,9.1
2023-02-21T06:08:24.052Z,9.4
2023-02-21T06:09:33.000Z,9.2
2023-02-21T06:12:05.000Z,9.1
2023-02-21T06:13:20.000Z,9.8
2023-02-21T06:14:42.826Z,9.8
2023-02-21T06:15:51.000Z,10.2
2023-02-21T06:17:06.000Z,10.2
2023-02-21T06:18:09.000Z,10.7
2023-02-21T06:18:29.457Z,9.8
2023-02-21T06:19:38.000Z,10
2023-02-21T06:21:02.090Z,9.9
2023-02-21T06:22:18.288Z,10.3
2023-02-21T06:24:50.685Z,9.9
2023-02-21T06:26:06.874Z,10.2
2023-02-21T06:27:23.076Z,10.6
2023-02-21T06:28:39.269Z,10.3
2023-02-21T06:29:48.000Z,10
2023-02-21T06:31:04.000Z,10.3
2023-02-21T06:32:20.000Z,10.8
2023-02-21T06:33:43.074Z,10.2
2023-02-21T06:34:59.282Z,10.7
2023-02-21T06:36:08.000Z,10.6
2023-02-21T06:37:31.414Z,10.4
2023-02-21T06:38:40.000Z,11.3
2023-02-21T06:39:57.000Z,11.3
2023-02-21T06:41:13.000Z,11.3
2023-02-21T06:42:28.000Z,11.1
2023-02-21T06:43:43.000Z,10.8
2023-02-21T06:44:59.000Z,11.4
2023-02-21T06:46:15.000Z,10.1
2023-02-21T06:47:30.000Z,10.7
2023-02-21T06:48:53.516Z,10.3
2023-02-21T06:50:02.000Z,10.6
2023-02-21T06:51:18.000Z,10.5
2023-02-21T06:52:35.000Z,10.2
2023-02-21T06:53:51.000Z,10.4
2023-02-21T06:55:07.000Z,10.5
2023-02-21T06:56:23.000Z,9.3
2023-02-21T06:57:39.000Z,9.8
2023-02-21T06:58:56.000Z,10.5
2023-02-21T07:00:19.032Z,10.1
2023-02-21T07:01:35.228Z,10.5
2023-02-21T07:02:51.674Z,9.5
2023-02-21T07:03:59.000Z,9.8
2023-02-21T07:05:16.000Z,9.8
2023-02-21T07:06:18.000Z,9.6
2023-02-21T07:06:32.000Z,9.4
2023-02-21T07:07:34.000Z,9.6
2023-02-21T07:07:55.226Z,9.7
2023-02-21T07:09:04.000Z,9.8
2023-02-21T07:10:20.000Z,9.7
2023-02-21T07:14:14.504Z,9.4
2023-02-21T07:15:22.000Z,9.9
2023-02-21T07:16:37.000Z,9.3
2023-02-21T07:17:54.000Z,9.7
2023-02-21T07:20:33.518Z,9.8
2023-02-21T07:21:49.724Z,9.3
2023-02-21T07:22:58.000Z,9.8
2023-02-21T07:24:15.000Z,9.4
2023-02-21T07:25:38.054Z,9.3
2023-02-21T07:26:54.498Z,10.1
2023-02-21T07:28:10.697Z,9.6
2023-02-21T07:29:19.000Z,9.4
2023-02-21T07:30:42.840Z,9.4
2023-02-21T07:31:52.000Z,9.4
2023-02-21T07:33:14.494Z,9.4
2023-02-21T07:34:10.000Z,9
2023-02-21T07:34:30.444Z,9.5
2023-02-21T07:35:39.000Z,9.6
2023-02-21T07:36:56.000Z,9.1
2023-02-21T07:38:12.000Z,9.2
2023-02-21T07:40:44.000Z,8.8
2023-02-21T07:42:06.903Z,9.6
2023-02-21T07:43:23.089Z,9.2
2023-02-21T07:44:38.067Z,8.3
2023-02-21T07:45:46.000Z,9.4
2023-02-21T07:47:09.474Z,8.4
2023-02-21T07:48:18.000Z,8.4
2023-02-21T07:49:42.117Z,8.7
2023-02-21T07:50:51.000Z,8.7
2023-02-21T07:52:07.000Z,8.8
2023-02-21T07:53:30.454Z,8.4
2023-02-21T07:54:39.000Z,9
2023-02-21T07:56:02.846Z,8.4
2023-02-21T07:57:19.317Z,8.4
2023-02-21T07:58:28.000Z,8.4
2023-02-21T07:59:51.433Z,7.7
2023-02-21T08:01:07.628Z,8.1
2023-02-21T08:02:16.000Z,8.6
2023-02-21T08:03:18.000Z,8.2
2023-02-21T08:03:32.000Z,8.4
2023-02-21T08:04:55.233Z,8
2023-02-21T08:06:04.000Z,8.8
2023-02-21T08:07:20.000Z,8.6
2023-02-21T08:09:35.000Z,8.5
2023-02-21T08:10:00.016Z,8.3
2023-02-21T08:11:08.000Z,8.9
2023-02-21T08:12:08.000Z,8.3
2023-02-21T08:12:30.709Z,8
2023-02-21T08:13:38.000Z,8.9
2023-02-21T08:16:10.000Z,8.3
2023-02-21T08:18:42.000Z,8.1
2023-02-21T08:20:05.667Z,8.3
2023-02-21T08:21:15.000Z,8.1
2023-02-21T08:22:38.058Z,7.6
2023-02-21T08:23:47.000Z,9
2023-02-21T08:25:10.696Z,8.4
2023-02-21T08:26:19.000Z,8.2
2023-02-21T08:27:43.092Z,8.3
2023-02-21T08:28:59.038Z,8.3
2023-02-21T08:30:08.000Z,8.8
2023-02-21T08:31:30.446Z,9.2
2023-02-21T08:32:46.642Z,9.8
2023-02-21T08:34:03.090Z,9.2
2023-02-21T08:35:12.000Z,9.7
2023-02-21T08:36:28.000Z,9.1
2023-02-21T08:37:51.426Z,8.9
2023-02-21T08:39:07.621Z,9.1
2023-02-21T08:40:24.080Z,8.5
2023-02-21T08:41:40.014Z,8.6
2023-02-21T08:42:56.466Z,8.7
2023-02-21T08:44:05.000Z,9.1
2023-02-21T08:45:21.000Z,8.3
2023-02-21T08:46:45.049Z,8.5
2023-02-21T08:47:53.000Z,8.4
2023-02-21T08:49:09.000Z,8.4
2023-02-21T08:50:32.648Z,9.1
2023-02-21T08:51:41.000Z,8.9
2023-02-21T08:53:05.041Z,9.5
2023-02-21T08:54:14.000Z,9
2023-02-21T08:55:37.435Z,10
2023-02-21T08:56:53.629Z,9.9
2023-02-21T08:58:02.000Z,10.4
2023-02-21T08:59:19.000Z,10.3
2023-02-21T09:00:35.000Z,10.5
2023-02-21T09:01:51.000Z,11.2
2023-02-21T09:03:06.000Z,11.7
2023-02-21T09:04:21.000Z,11.6
2023-02-21T09:05:44.060Z,11
2023-02-21T09:06:52.000Z,10.5
2023-02-21T09:08:08.000Z,10.6
2023-02-21T09:09:31.406Z,10.8
2023-02-21T09:10:40.000Z,13.1
2023-02-21T09:11:57.000Z,12.9
2023-02-21T09:13:20.240Z,12.1
2023-02-21T09:14:36.180Z,12.9
2023-02-21T09:15:52.373Z,12.8
2023-02-21T09:17:08.827Z,12.2
2023-02-21T09:18:25.014Z,12.7
2023-02-21T09:19:34.000Z,12.4
2023-02-21T09:20:57.395Z,13.6
2023-02-21T09:22:06.000Z,13.1
2023-02-21T09:23:22.000Z,12.3
2023-02-21T09:24:38.000Z,12
2023-02-21T09:26:00.938Z,12.1
2023-02-21T09:27:17.132Z,12.3
2023-02-21T09:28:33.585Z,12.5
2023-02-21T09:29:42.000Z,12.6
2023-02-21T09:30:58.000Z,12.1
2023-02-21T09:32:14.000Z,11.5
2023-02-21T09:33:29.000Z,12.5
2023-02-21T09:34:51.363Z,12.1
2023-02-21T09:36:07.557Z,11.8
2023-02-21T09:37:16.000Z,10.4
2023-02-21T09:38:32.000Z,10.6
2023-02-21T09:39:34.000Z,10.8
2023-02-21T09:39:55.419Z,11.2
2023-02-21T09:41:11.604Z,11.3
2023-02-21T09:42:20.000Z,10.7
2023-02-21T09:43:36.000Z,10.7
2023-02-21T09:46:09.000Z,10.5
2023-02-21T09:47:32.562Z,10.5
2023-02-21T09:48:48.778Z,10.8
2023-02-21T09:49:57.000Z,11.3
2023-02-21T09:51:14.000Z,10.8
2023-02-21T09:52:37.090Z,10.4
2023-02-21T09:53:52.301Z,10.3
2023-02-21T09:55:08.495Z,10.4
2023-02-21T09:56:17.000Z,10.4
2023-02-21T09:57:40.145Z,10.4
2023-02-21T09:58:56.096Z,10.9
2023-02-21T10:00:05.000Z,10.7
2023-02-21T10:01:28.734Z,12.2
2023-02-21T10:02:43.944Z,11.2
2023-02-21T10:04:00.148Z,11.4
2023-02-21T10:05:15.116Z,11.1
2023-02-21T10:06:23.000Z,11.4
2023-02-21T10:07:39.000Z,11.3
2023-02-21T10:08:55.000Z,11.5
2023-02-21T10:10:12.000Z,10.7
2023-02-21T10:11:28.000Z,11
2023-02-21T10:12:51.294Z,12
2023-02-21T10:14:07.741Z,11.9
2023-02-21T10:15:23.681Z,11.9
2023-02-21T10:16:39.874Z,11.5
2023-02-21T10:17:56.068Z,11.9
2023-02-21T10:19:12.261Z,11.4
2023-02-21T10:20:21.000Z,11.7
2023-02-21T10:21:44.648Z,11.6
2023-02-21T10:22:59.858Z,11.1
2023-02-21T10:24:16.053Z,11
2023-02-21T10:25:25.000Z,11.1
2023-02-21T10:26:41.000Z,12.2
2023-02-21T10:27:57.000Z,11.7
2023-02-21T10:29:20.827Z,11.6
2023-02-21T10:30:30.000Z,11.7
2023-02-21T10:31:53.464Z,11.8
2023-02-21T10:33:09.664Z,11.9
2023-02-21T10:34:18.000Z,12
2023-02-21T10:35:42.053Z,12.8
2023-02-21T10:36:58.260Z,13.5
2023-02-21T10:38:14.430Z,13.6
2023-02-21T10:39:30.628Z,13.9
2023-02-21T10:40:45.837Z,13.4
2023-02-21T10:41:55.000Z,13.2
2023-02-21T10:43:11.000Z,13.2
2023-02-21T10:44:34.415Z,13.1
2023-02-21T10:45:50.361Z,12.6
2023-02-21T10:46:59.000Z,12.6
2023-02-21T10:48:22.996Z,12.8
2023-02-21T10:49:39.191Z,13
2023-02-21T10:50:55.384Z,13.3
2023-02-21T10:52:11.329Z,13.1
2023-02-21T10:53:27.773Z,13.4
2023-02-21T10:54:36.000Z,13.1
2023-02-21T10:55:53.000Z,13.1
2023-02-21T10:57:15.389Z,12.5
2023-02-21T10:58:24.000Z,13
2023-02-21T10:59:40.000Z,13.5
2023-02-21T11:00:43.000Z,13.6
2023-02-21T11:01:03.956Z,13.1
2023-02-21T11:02:20.147Z,12.9
2023-02-21T11:03:36.088Z,13.5
2023-02-21T11:04:52.283Z,13.7
2023-02-21T11:07:24.670Z,13.5
2023-02-21T11:08:34.000Z,13.1
2023-02-21T11:09:49.000Z,13.6
2023-02-21T11:11:04.000Z,13.5
2023-02-21T11:12:26.780Z,13.6
2023-02-21T11:13:41.724Z,13.4
2023-02-21T11:14:57.918Z,13.5
2023-02-21T11:16:14.353Z,13.6
2023-02-21T11:17:23.000Z,13.2
2023-02-21T11:18:39.000Z,13.4
2023-02-21T11:20:02.694Z,14
2023-02-21T11:20:58.000Z,13.4
2023-02-21T11:21:12.000Z,14
2023-02-21T11:22:35.081Z,13.8
2023-02-21T11:23:44.000Z,14.1
2023-02-21T11:25:00.000Z,13.2
2023-02-21T11:27:40.105Z,13.4
2023-02-21T11:28:49.000Z,13.8
2023-02-21T11:30:05.000Z,13.1
2023-02-21T11:31:27.700Z,13.5
2023-02-21T11:32:36.000Z,13.7
2023-02-21T11:33:53.000Z,12.4
2023-02-21T11:35:09.000Z,12.7
2023-02-21T11:36:25.000Z,12.9
2023-02-21T11:37:48.422Z,13
2023-02-21T11:38:56.000Z,12.7
2023-02-21T11:40:19.098Z,13.6
2023-02-21T11:41:28.000Z,13.6
2023-02-21T11:42:44.000Z,12.9
2023-02-21T11:44:06.459Z,12.9
2023-02-21T11:45:22.654Z,12.7
2023-02-21T11:46:31.000Z,13
2023-02-21T11:47:47.000Z,12.9
2023-02-21T11:49:03.000Z,12.5
2023-02-21T11:50:19.000Z,12.2
2023-02-21T11:51:35.000Z,12.7
2023-02-21T11:52:59.083Z,12.9
2023-02-21T11:54:08.000Z,12.5
2023-02-21T11:55:24.000Z,12.7
2023-02-21T11:56:40.000Z,12.6
2023-02-21T11:57:56.000Z,13.2
2023-02-21T11:59:13.000Z,14
2023-02-21T12:00:29.000Z,14
2023-02-21T12:01:52.436Z,13.9
2023-02-21T12:03:07.646Z,13.4
2023-02-21T12:04:16.000Z,13.1
2023-02-21T12:05:33.000Z,13.2
2023-02-21T12:06:49.000Z,12.7
2023-02-21T12:08:12.172Z,13.1
2023-02-21T12:09:21.000Z,13.5
2023-02-21T12:10:37.000Z,13.1
2023-02-21T12:12:00.030Z,14.2
2023-02-21T12:13:08.000Z,13.2
2023-02-21T12:14:24.000Z,12.4
2023-02-21T12:15:46.663Z,12
2023-02-21T12:16:54.000Z,12.6
2023-02-21T12:18:11.000Z,12.9
2023-02-21T12:19:27.000Z,12.4
2023-02-21T12:20:43.000Z,13.4
2023-02-21T12:22:06.389Z,13.3
2023-02-21T12:23:22.842Z,12.8
2023-02-21T12:24:31.000Z,12.8
2023-02-21T12:25:54.970Z,12.5
2023-02-21T12:27:04.000Z,12.1
2023-02-21T12:28:20.000Z,12.5
2023-02-21T12:29:36.000Z,12.5
2023-02-21T12:30:52.000Z,12.5
2023-02-21T12:32:16.184Z,12.1
2023-02-21T12:33:25.000Z,13.2
2023-02-21T12:34:40.000Z,12.1
2023-02-21T12:36:03.536Z,12.1
2023-02-21T12:37:12.000Z,12.9
2023-02-21T12:38:35.923Z,12.2
2023-02-21T12:39:45.000Z,12.7
2023-02-21T12:41:01.000Z,12.6
2023-02-21T12:42:24.504Z,10.8
2023-02-21T12:43:40.950Z,10.7
2023-02-21T12:44:57.138Z,10.8
2023-02-21T12:46:13.337Z,12.7
2023-02-21T12:47:29.531Z,12.4
2023-02-21T12:48:23.000Z,11.9
2023-02-21T12:48:38.000Z,12.3
2023-02-21T12:49:40.000Z,12.1
2023-02-21T12:50:01.926Z,12
2023-02-21T12:51:10.000Z,11.3
2023-02-21T12:52:26.000Z,11.3
2023-02-21T12:56:21.896Z,13.2
2023-02-21T12:57:31.000Z,12.3
2023-02-21T12:58:32.000Z,11.1
2023-02-21T12:58:54.037Z,12.6
2023-02-21T13:00:03.000Z,12.7
2023-02-21T13:01:26.698Z,12.3
2023-02-21T13:02:42.864Z,13.2
2023-02-21T13:05:06.000Z,11
2023-02-21T13:06:28.518Z,11.5
2023-02-21T13:07:36.000Z,11.6
2023-02-21T13:08:52.000Z,11.3
2023-02-21T13:10:09.000Z,11.3
2023-02-21T13:11:32.303Z,11.5
2023-02-21T13:12:41.000Z,12.1
2023-02-21T13:14:04.689Z,11.5
2023-02-21T13:15:13.000Z,11.9
2023-02-21T13:16:37.089Z,12.1
2023-02-21T13:17:46.000Z,12.3
2023-02-21T13:19:02.000Z,11
2023-02-21T13:20:18.000Z,11.6
2023-02-21T13:21:41.857Z,11.8
2023-02-21T13:22:57.803Z,11.6
2023-02-21T13:24:13.996Z,11.4
2023-02-21T13:25:29.448Z,12.4
2023-02-21T13:26:38.000Z,11.9
2023-02-21T13:27:54.000Z,12.5
2023-02-21T13:29:10.000Z,11.2
2023-02-21T13:30:27.000Z,11.5
2023-02-21T13:31:50.423Z,11.7
2023-02-21T13:32:59.000Z,11.3
2023-02-21T13:34:22.818Z,11.7
2023-02-21T13:35:38.999Z,11.4
2023-02-21T13:36:55.200Z,11.2
2023-02-21T13:38:10.169Z,11.8
2023-02-21T13:39:25.630Z,11.9
2023-02-21T13:40:41.814Z,11.8
2023-02-21T13:41:35.000Z,10.7
2023-02-21T13:41:49.000Z,11.8
2023-02-21T13:42:51.000Z,11.2
2023-02-21T13:43:05.000Z,12.3
2023-02-21T13:44:28.197Z,11
2023-02-21T13:45:37.000Z,11.5
2023-02-21T13:49:26.000Z,11
2023-02-21T13:50:42.000Z,10.9
2023-02-21T13:52:05.610Z,11
2023-02-21T13:53:21.799Z,10.8
2023-02-21T13:54:30.000Z,11.7
2023-02-21T13:55:53.938Z,11.6
2023-02-21T13:57:03.000Z,11.8
2023-02-21T13:58:26.325Z,11.2
2023-02-21T13:59:34.000Z,12.1
2023-02-21T14:00:50.000Z,12
2023-02-21T14:01:53.000Z,12
2023-02-21T14:02:13.922Z,11.8
2023-02-21T14:03:23.000Z,11.6
2023-02-21T14:04:39.000Z,11.7
2023-02-21T14:05:55.000Z,12
2023-02-21T14:08:34.165Z,12.2
2023-02-21T14:09:49.126Z,12
2023-02-21T14:10:58.000Z,11.1
2023-02-21T14:12:13.000Z,11.8
2023-02-21T14:13:36.729Z,12.5
2023-02-21T14:14:45.000Z,12
2023-02-21T14:16:07.159Z,12
2023-02-21T14:17:23.605Z,12.3
2023-02-21T14:18:39.794Z,12.7
2023-02-21T14:19:48.000Z,12.6
2023-02-21T14:21:05.000Z,12.3
2023-02-21T14:22:28.376Z,12.5
2023-02-21T14:23:44.563Z,12.5
2023-02-21T14:25:00.775Z,13
2023-02-21T14:26:16.707Z,12.9
2023-02-21T14:27:33.153Z,13.1
2023-02-21T14:28:49.094Z,13.5
2023-02-21T14:30:05.287Z,12.9
2023-02-21T14:31:21.728Z,13.2
2023-02-21T14:32:36.691Z,12.8
2023-02-21T14:33:53.126Z,12.8
2023-02-21T14:35:09.327Z,12.6
2023-02-21T14:36:25.271Z,12.8
2023-02-21T14:37:41.755Z,12.9
2023-02-21T14:38:57.901Z,12.1
2023-02-21T14:40:13.853Z,12.4
2023-02-21T14:41:23.000Z,13
2023-02-21T14:42:39.000Z,12.8
2023-02-21T14:43:55.000Z,13.4
2023-02-21T14:45:17.900Z,13.1
2023-02-21T14:46:33.111Z,12.2
2023-02-21T14:47:41.000Z,12.4
2023-02-21T14:48:56.000Z,13.2
2023-02-21T14:50:12.000Z,12.6
2023-02-21T14:51:35.681Z,12.6
2023-02-21T14:52:45.000Z,12.4
2023-02-21T14:54:08.069Z,12.7
2023-02-21T14:55:24.510Z,12.7
2023-02-21T14:56:33.000Z,12.3
2023-02-21T14:57:36.000Z,12.2
2023-02-21T14:57:49.000Z,11.8
2023-02-21T14:59:13.090Z,12.6
2023-02-21T15:00:29.037Z,12.2
2023-02-21T15:01:45.484Z,12.5
2023-02-21T15:04:17.619Z,12.8
2023-02-21T15:05:25.000Z,12.3
2023-02-21T15:06:49.022Z,12.3
2023-02-21T15:08:05.473Z,13.1
2023-02-21T15:09:21.409Z,13.1
2023-02-21T15:10:30.000Z,14.7
2023-02-21T15:11:46.000Z,14.6
2023-02-21T15:13:03.000Z,15
2023-02-21T15:14:25.209Z,16.6
2023-02-21T15:15:33.000Z,16.6
2023-02-21T15:16:49.000Z,16.3
2023-02-21T15:18:05.000Z,16.4
2023-02-21T15:19:22.000Z,16.5
2023-02-21T15:20:45.440Z,15.4
2023-02-21T15:21:54.000Z,16.2
2023-02-21T15:23:09.000Z,15.9
2023-02-21T15:24:24.000Z,16.2
2023-02-21T15:25:48.011Z,17.1
2023-02-21T15:27:04.476Z,16.7
2023-02-21T15:28:13.000Z,17.3
2023-02-21T15:29:36.841Z,17
2023-02-21T15:30:45.000Z,17.6
2023-02-21T15:32:02.000Z,18
2023-02-21T15:33:25.432Z,18
2023-02-21T15:34:41.366Z,17.9
2023-02-21T15:35:57.559Z,19.7
2023-02-21T15:37:13.753Z,19.1
2023-02-21T15:38:30.198Z,19.1
2023-02-21T15:39:24.000Z,19.4
2023-02-21T15:39:46.391Z,19.1
2023-02-21T15:41:02.333Z,19.1
2023-02-21T15:42:17.543Z,18.9
2023-02-21T15:43:26.000Z,19.1
2023-02-21T15:45:59.000Z,18.8
2023-02-21T15:47:22.568Z,20.2
2023-02-21T15:48:31.000Z,19.2
2023-02-21T15:49:53.730Z,19.8
2023-02-21T15:51:10.179Z,19.9
2023-02-21T15:52:25.133Z,18.9
2023-02-21T15:53:41.576Z,19.7
2023-02-21T15:54:50.000Z,19.6
2023-02-21T15:56:13.986Z,19.7
2023-02-21T15:57:23.000Z,20
2023-02-21T15:58:39.000Z,20.5
2023-02-21T15:59:55.000Z,21.2
2023-02-21T16:01:17.516Z,21
2023-02-21T16:02:32.725Z,20.2
2023-02-21T16:03:42.000Z,21.5
2023-02-21T16:05:05.113Z,21.8
2023-02-21T16:06:21.559Z,21
2023-02-21T16:07:37.760Z,21.2
2023-02-21T16:08:53.936Z,22
2023-02-21T16:10:09.888Z,21.9
2023-02-21T16:11:26.321Z,22.2
2023-02-21T16:12:35.000Z,22.8
2023-02-21T16:13:58.469Z,22.2
2023-02-21T16:15:14.904Z,21.5
2023-02-21T16:16:24.000Z,22.1
2023-02-21T16:17:47.051Z,21.7
2023-02-21T16:19:03.244Z,20.5
2023-02-21T16:20:11.000Z,21.7
2023-02-21T16:21:27.000Z,21.7
2023-02-21T16:22:43.000Z,21.7
2023-02-21T16:24:07.290Z,22.1
2023-02-21T16:25:23.476Z,21.5
2023-02-21T16:26:39.422Z,22.7
2023-02-21T16:27:54.888Z,21.8
2023-02-21T16:29:02.000Z,22.1
2023-02-21T16:30:19.000Z,22.5
2023-02-21T16:31:42.240Z,22
2023-02-21T16:32:51.000Z,22.4
2023-02-21T16:34:14.627Z,21.4
2023-02-21T16:35:22.000Z,22.4
2023-02-21T16:36:39.000Z,23.3
2023-02-21T16:38:01.509Z,22.6
2023-02-21T16:39:10.000Z,23.7
2023-02-21T16:40:33.637Z,23.6
2023-02-21T16:41:50.092Z,24
2023-02-21T16:42:59.000Z,23.4
2023-02-21T16:44:15.000Z,23.6
2023-02-21T16:45:17.000Z,25.3
2023-02-21T16:45:31.000Z,24.1
2023-02-21T16:46:33.000Z,25.5
2023-02-21T16:46:54.606Z,24.2
2023-02-21T16:48:10.799Z,24.8
2023-02-21T16:49:20.000Z,25.1
2023-02-21T16:53:08.000Z,25.4
2023-02-21T16:54:10.000Z,25.7
2023-02-21T16:54:23.000Z,25.4
2023-02-21T16:55:47.231Z,26.1
2023-02-21T16:57:03.171Z,24.9
2023-02-21T16:58:12.000Z,25.2
2023-02-21T17:00:44.000Z,26.8
2023-02-21T17:02:07.945Z,25.5
2023-02-21T17:03:16.000Z,26
2023-02-21T17:04:39.615Z,26.4
2023-02-21T17:05:54.839Z,26.8
2023-02-21T17:07:02.000Z,27.2
2023-02-21T17:08:25.983Z,26.8